sensor_id;sensor_type;location;lat;lon;timestamp;temperature;humidity
64987;DHT22;67903;52.108;9.358;2024-01-25T00:02:21;7.90;72.10
64987;DHT22;67903;52.108;9.358;2024-01-25T00:05:07;7.80;72.50
64987;DHT22;67903;52.108;9.358;2024-01-25T00:07:53;7.90;72.20
64987;DHT22;67903;52.108;9.358;2024-01-25T00:10:38;8.00;71.90
64987;DHT22;67903;52.108;9.358;2024-01-25T00:13:24;7.90;72.00
64987;DHT22;67903;52.108;9.358;2024-01-25T00:16:10;8.00;71.90
64987;DHT22;67903;52.108;9.358;2024-01-25T00:18:55;8.00;71.50
64987;DHT22;67903;52.108;9.358;2024-01-25T00:21:44;8.00;71.60
64987;DHT22;67903;52.108;9.358;2024-01-25T00:24:30;8.00;71.70
64987;DHT22;67903;52.108;9.358;2024-01-25T00:27:16;7.90;71.70
64987;DHT22;67903;52.108;9.358;2024-01-25T00:30:01;8.00;71.70
64987;DHT22;67903;52.108;9.358;2024-01-25T00:32:48;7.90;71.90
64987;DHT22;67903;52.108;9.358;2024-01-25T00:35:35;7.90;71.70
64987;DHT22;67903;52.108;9.358;2024-01-25T00:38:21;8.00;71.80
64987;DHT22;67903;52.108;9.358;2024-01-25T00:41:08;7.90;72.00
64987;DHT22;67903;52.108;9.358;2024-01-25T00:43:54;8.00;71.70
64987;DHT22;67903;52.108;9.358;2024-01-25T00:46:40;7.90;71.70
64987;DHT22;67903;52.108;9.358;2024-01-25T00:49:25;7.90;71.80
64987;DHT22;67903;52.108;9.358;2024-01-25T00:52:11;7.90;71.70
64987;DHT22;67903;52.108;9.358;2024-01-25T00:54:57;7.80;72.00
64987;DHT22;67903;52.108;9.358;2024-01-25T00:57:43;7.80;72.10
64987;DHT22;67903;52.108;9.358;2024-01-25T01:00:29;7.80;72.50
64987;DHT22;67903;52.108;9.358;2024-01-25T01:03:18;7.80;72.10
64987;DHT22;67903;52.108;9.358;2024-01-25T01:06:04;7.80;72.20
64987;DHT22;67903;52.108;9.358;2024-01-25T01:08:50;7.80;72.20
64987;DHT22;67903;52.108;9.358;2024-01-25T01:11:38;7.80;72.20
64987;DHT22;67903;52.108;9.358;2024-01-25T01:14:24;7.80;71.80
64987;DHT22;67903;52.108;9.358;2024-01-25T01:17:10;7.80;72.20
64987;DHT22;67903;52.108;9.358;2024-01-25T01:19:55;7.70;72.20
64987;DHT22;67903;52.108;9.358;2024-01-25T01:22:41;7.70;72.10
64987;DHT22;67903;52.108;9.358;2024-01-25T01:25:26;7.80;71.60
64987;DHT22;67903;52.108;9.358;2024-01-25T01:28:12;7.80;71.70
64987;DHT22;67903;52.108;9.358;2024-01-25T01:30:57;7.80;71.70
64987;DHT22;67903;52.108;9.358;2024-01-25T01:33:43;7.70;71.50
64987;DHT22;67903;52.108;9.358;2024-01-25T01:36:28;7.80;71.50
64987;DHT22;67903;52.108;9.358;2024-01-25T01:39:14;7.60;72.00
64987;DHT22;67903;52.108;9.358;2024-01-25T01:41:59;7.60;72.00
64987;DHT22;67903;52.108;9.358;2024-01-25T01:44:45;7.60;72.10
64987;DHT22;67903;52.108;9.358;2024-01-25T01:47:30;7.60;72.10
64987;DHT22;67903;52.108;9.358;2024-01-25T01:50:16;7.60;72.10
64987;DHT22;67903;52.108;9.358;2024-01-25T01:53:03;7.60;72.10
64987;DHT22;67903;52.108;9.358;2024-01-25T01:55:49;7.60;72.20
64987;DHT22;67903;52.108;9.358;2024-01-25T01:58:34;7.60;72.00
64987;DHT22;67903;52.108;9.358;2024-01-25T02:01:21;7.70;71.80
64987;DHT22;67903;52.108;9.358;2024-01-25T02:04:07;7.70;71.80
64987;DHT22;67903;52.108;9.358;2024-01-25T02:06:53;7.70;71.80
64987;DHT22;67903;52.108;9.358;2024-01-25T02:09:39;7.70;71.70
64987;DHT22;67903;52.108;9.358;2024-01-25T02:12:24;7.60;72.10
64987;DHT22;67903;52.108;9.358;2024-01-25T02:15:10;7.60;71.90
64987;DHT22;67903;52.108;9.358;2024-01-25T02:17:55;7.50;72.20
64987;DHT22;67903;52.108;9.358;2024-01-25T02:20:41;7.60;71.50
64987;DHT22;67903;52.108;9.358;2024-01-25T02:23:27;7.50;71.90
64987;DHT22;67903;52.108;9.358;2024-01-25T02:26:12;7.50;72.10
64987;DHT22;67903;52.108;9.358;2024-01-25T02:28:58;7.50;72.10
64987;DHT22;67903;52.108;9.358;2024-01-25T02:31:43;7.50;72.50
64987;DHT22;67903;52.108;9.358;2024-01-25T02:34:29;7.40;72.70
64987;DHT22;67903;52.108;9.358;2024-01-25T02:37:15;7.50;72.20
64987;DHT22;67903;52.108;9.358;2024-01-25T02:40:00;7.40;72.60
64987;DHT22;67903;52.108;9.358;2024-01-25T02:42:46;7.40;73.00
64987;DHT22;67903;52.108;9.358;2024-01-25T02:45:31;7.40;72.80
64987;DHT22;67903;52.108;9.358;2024-01-25T02:48:17;7.30;73.20
64987;DHT22;67903;52.108;9.358;2024-01-25T02:51:04;7.20;73.30
64987;DHT22;67903;52.108;9.358;2024-01-25T02:53:49;7.20;73.40
64987;DHT22;67903;52.108;9.358;2024-01-25T02:56:35;7.20;73.40
64987;DHT22;67903;52.108;9.358;2024-01-25T02:59:20;7.20;73.60
64987;DHT22;67903;52.108;9.358;2024-01-25T03:02:06;7.30;73.50
64987;DHT22;67903;52.108;9.358;2024-01-25T03:04:51;7.40;73.20
64987;DHT22;67903;52.108;9.358;2024-01-25T03:07:37;7.30;73.40
64987;DHT22;67903;52.108;9.358;2024-01-25T03:10:23;7.30;73.40
64987;DHT22;67903;52.108;9.358;2024-01-25T03:13:08;7.30;73.30
64987;DHT22;67903;52.108;9.358;2024-01-25T03:15:54;7.30;73.40
64987;DHT22;67903;52.108;9.358;2024-01-25T03:18:39;7.30;73.60
64987;DHT22;67903;52.108;9.358;2024-01-25T03:21:25;7.30;73.40
64987;DHT22;67903;52.108;9.358;2024-01-25T03:24:10;7.30;73.60
64987;DHT22;67903;52.108;9.358;2024-01-25T03:26:56;7.30;73.70
64987;DHT22;67903;52.108;9.358;2024-01-25T03:29:43;7.40;73.60
64987;DHT22;67903;52.108;9.358;2024-01-25T03:32:29;7.30;73.50
64987;DHT22;67903;52.108;9.358;2024-01-25T03:35:17;7.30;73.90
64987;DHT22;67903;52.108;9.358;2024-01-25T03:38:02;7.20;74.10
64987;DHT22;67903;52.108;9.358;2024-01-25T03:40:48;7.30;73.90
64987;DHT22;67903;52.108;9.358;2024-01-25T03:43:35;7.20;74.00
64987;DHT22;67903;52.108;9.358;2024-01-25T03:46:29;7.20;73.60
64987;DHT22;67903;52.108;9.358;2024-01-25T03:49:14;7.30;73.30
64987;DHT22;67903;52.108;9.358;2024-01-25T03:52:00;7.30;73.40
64987;DHT22;67903;52.108;9.358;2024-01-25T03:54:45;7.30;73.30
64987;DHT22;67903;52.108;9.358;2024-01-25T03:57:31;7.20;73.50
64987;DHT22;67903;52.108;9.358;2024-01-25T04:00:17;7.20;73.30
64987;DHT22;67903;52.108;9.358;2024-01-25T04:03:02;7.20;73.60
64987;DHT22;67903;52.108;9.358;2024-01-25T04:05:48;7.20;73.70
64987;DHT22;67903;52.108;9.358;2024-01-25T04:08:34;7.20;74.00
64987;DHT22;67903;52.108;9.358;2024-01-25T04:11:20;7.20;74.00
64987;DHT22;67903;52.108;9.358;2024-01-25T04:14:06;7.20;74.40
64987;DHT22;67903;52.108;9.358;2024-01-25T04:16:52;7.20;74.60
64987;DHT22;67903;52.108;9.358;2024-01-25T04:19:37;7.00;74.60
64987;DHT22;67903;52.108;9.358;2024-01-25T04:22:23;7.00;74.70
64987;DHT22;67903;52.108;9.358;2024-01-25T04:25:08;7.00;75.00
64987;DHT22;67903;52.108;9.358;2024-01-25T04:27:54;7.00;75.20
64987;DHT22;67903;52.108;9.358;2024-01-25T04:30:39;6.90;75.40
64987;DHT22;67903;52.108;9.358;2024-01-25T04:33:25;7.00;74.90
64987;DHT22;67903;52.108;9.358;2024-01-25T04:36:10;7.00;75.20
64987;DHT22;67903;52.108;9.358;2024-01-25T04:38:56;7.00;75.00
64987;DHT22;67903;52.108;9.358;2024-01-25T04:41:41;7.00;75.10
64987;DHT22;67903;52.108;9.358;2024-01-25T04:44:27;7.00;75.30
64987;DHT22;67903;52.108;9.358;2024-01-25T04:47:12;6.90;75.10
64987;DHT22;67903;52.108;9.358;2024-01-25T04:49:58;7.00;75.30
64987;DHT22;67903;52.108;9.358;2024-01-25T04:52:44;7.00;75.30
64987;DHT22;67903;52.108;9.358;2024-01-25T04:55:29;6.90;75.20
64987;DHT22;67903;52.108;9.358;2024-01-25T04:58:14;6.90;75.40
64987;DHT22;67903;52.108;9.358;2024-01-25T05:01:00;6.90;75.40
64987;DHT22;67903;52.108;9.358;2024-01-25T05:03:46;6.90;75.50
64987;DHT22;67903;52.108;9.358;2024-01-25T05:06:31;6.90;75.40
64987;DHT22;67903;52.108;9.358;2024-01-25T05:09:17;6.90;75.40
64987;DHT22;67903;52.108;9.358;2024-01-25T05:12:03;6.90;75.30
64987;DHT22;67903;52.108;9.358;2024-01-25T05:14:48;6.80;75.50
64987;DHT22;67903;52.108;9.358;2024-01-25T05:17:34;6.80;75.80
64987;DHT22;67903;52.108;9.358;2024-01-25T05:20:19;6.80;75.60
64987;DHT22;67903;52.108;9.358;2024-01-25T05:23:05;6.80;75.60
64987;DHT22;67903;52.108;9.358;2024-01-25T05:25:51;6.80;75.50
64987;DHT22;67903;52.108;9.358;2024-01-25T05:28:36;6.80;75.70
64987;DHT22;67903;52.108;9.358;2024-01-25T05:31:22;6.70;75.90
64987;DHT22;67903;52.108;9.358;2024-01-25T05:34:08;6.70;76.00
64987;DHT22;67903;52.108;9.358;2024-01-25T05:36:54;6.70;76.40
64987;DHT22;67903;52.108;9.358;2024-01-25T05:39:39;6.70;76.20
64987;DHT22;67903;52.108;9.358;2024-01-25T05:42:25;6.60;76.30
64987;DHT22;67903;52.108;9.358;2024-01-25T05:45:10;6.60;76.50
64987;DHT22;67903;52.108;9.358;2024-01-25T05:47:56;6.60;76.20
64987;DHT22;67903;52.108;9.358;2024-01-25T05:50:41;6.60;76.40
64987;DHT22;67903;52.108;9.358;2024-01-25T05:53:27;6.60;76.60
64987;DHT22;67903;52.108;9.358;2024-01-25T05:56:12;6.60;76.60
64987;DHT22;67903;52.108;9.358;2024-01-25T05:58:58;6.60;76.70
64987;DHT22;67903;52.108;9.358;2024-01-25T06:01:43;6.60;76.80
64987;DHT22;67903;52.108;9.358;2024-01-25T06:04:29;6.60;77.00
64987;DHT22;67903;52.108;9.358;2024-01-25T06:07:15;6.60;77.20
64987;DHT22;67903;52.108;9.358;2024-01-25T06:10:01;6.50;77.10
64987;DHT22;67903;52.108;9.358;2024-01-25T06:12:46;6.50;77.10
64987;DHT22;67903;52.108;9.358;2024-01-25T06:15:32;6.50;77.00
64987;DHT22;67903;52.108;9.358;2024-01-25T06:18:17;6.50;77.20
64987;DHT22;67903;52.108;9.358;2024-01-25T06:21:03;6.50;77.20
64987;DHT22;67903;52.108;9.358;2024-01-25T06:23:49;6.60;76.90
64987;DHT22;67903;52.108;9.358;2024-01-25T06:26:34;6.50;77.10
64987;DHT22;67903;52.108;9.358;2024-01-25T06:29:20;6.50;77.40
64987;DHT22;67903;52.108;9.358;2024-01-25T06:32:06;6.50;77.30
64987;DHT22;67903;52.108;9.358;2024-01-25T06:34:58;6.50;77.30
64987;DHT22;67903;52.108;9.358;2024-01-25T06:37:43;6.50;77.50
64987;DHT22;67903;52.108;9.358;2024-01-25T06:40:29;6.50;77.60
64987;DHT22;67903;52.108;9.358;2024-01-25T06:43:15;6.50;77.80
64987;DHT22;67903;52.108;9.358;2024-01-25T06:46:00;6.50;78.10
64987;DHT22;67903;52.108;9.358;2024-01-25T06:48:46;6.40;77.90
64987;DHT22;67903;52.108;9.358;2024-01-25T06:51:32;6.40;78.20
64987;DHT22;67903;52.108;9.358;2024-01-25T06:54:18;6.40;77.90
64987;DHT22;67903;52.108;9.358;2024-01-25T06:57:03;6.40;77.80
64987;DHT22;67903;52.108;9.358;2024-01-25T06:59:49;6.40;78.10
64987;DHT22;67903;52.108;9.358;2024-01-25T07:02:35;6.30;78.40
64987;DHT22;67903;52.108;9.358;2024-01-25T07:05:21;6.30;78.40
64987;DHT22;67903;52.108;9.358;2024-01-25T07:08:07;6.30;78.90
64987;DHT22;67903;52.108;9.358;2024-01-25T07:10:57;6.30;79.00
64987;DHT22;67903;52.108;9.358;2024-01-25T07:13:44;6.30;78.90
64987;DHT22;67903;52.108;9.358;2024-01-25T07:16:30;6.30;78.90
64987;DHT22;67903;52.108;9.358;2024-01-25T07:19:16;6.20;79.60
64987;DHT22;67903;52.108;9.358;2024-01-25T07:22:01;6.20;79.00
64987;DHT22;67903;52.108;9.358;2024-01-25T07:24:47;6.20;79.00
64987;DHT22;67903;52.108;9.358;2024-01-25T07:27:32;6.20;79.10
64987;DHT22;67903;52.108;9.358;2024-01-25T07:30:18;6.10;79.40
64987;DHT22;67903;52.108;9.358;2024-01-25T07:33:04;6.10;79.40
64987;DHT22;67903;52.108;9.358;2024-01-25T07:35:49;6.10;79.80
64987;DHT22;67903;52.108;9.358;2024-01-25T07:38:35;6.10;79.70
64987;DHT22;67903;52.108;9.358;2024-01-25T07:41:21;6.10;79.60
64987;DHT22;67903;52.108;9.358;2024-01-25T07:44:06;6.10;79.70
64987;DHT22;67903;52.108;9.358;2024-01-25T07:46:52;6.10;80.00
64987;DHT22;67903;52.108;9.358;2024-01-25T07:49:37;6.10;79.90
64987;DHT22;67903;52.108;9.358;2024-01-25T07:52:23;6.10;80.00
64987;DHT22;67903;52.108;9.358;2024-01-25T07:55:12;6.10;80.40
64987;DHT22;67903;52.108;9.358;2024-01-25T07:57:57;6.10;80.20
64987;DHT22;67903;52.108;9.358;2024-01-25T08:00:43;6.10;80.10
64987;DHT22;67903;52.108;9.358;2024-01-25T08:03:29;6.10;80.00
64987;DHT22;67903;52.108;9.358;2024-01-25T08:06:15;6.10;80.20
64987;DHT22;67903;52.108;9.358;2024-01-25T08:09:00;6.10;80.20
64987;DHT22;67903;52.108;9.358;2024-01-25T08:11:46;6.10;80.20
64987;DHT22;67903;52.108;9.358;2024-01-25T08:14:31;6.10;80.30
64987;DHT22;67903;52.108;9.358;2024-01-25T08:17:17;6.00;80.50
64987;DHT22;67903;52.108;9.358;2024-01-25T08:20:03;6.00;80.60
64987;DHT22;67903;52.108;9.358;2024-01-25T08:22:51;6.10;80.30
64987;DHT22;67903;52.108;9.358;2024-01-25T08:25:37;6.10;80.70
64987;DHT22;67903;52.108;9.358;2024-01-25T08:28:22;6.10;80.30
64987;DHT22;67903;52.108;9.358;2024-01-25T08:31:09;6.10;80.10
64987;DHT22;67903;52.108;9.358;2024-01-25T08:33:54;6.10;80.00
64987;DHT22;67903;52.108;9.358;2024-01-25T08:36:40;6.10;80.00
64987;DHT22;67903;52.108;9.358;2024-01-25T08:39:26;6.10;79.90
64987;DHT22;67903;52.108;9.358;2024-01-25T08:42:11;6.20;80.00
64987;DHT22;67903;52.108;9.358;2024-01-25T08:44:58;6.10;80.40
64987;DHT22;67903;52.108;9.358;2024-01-25T08:47:45;6.10;80.50
64987;DHT22;67903;52.108;9.358;2024-01-25T08:50:31;6.20;80.80
64987;DHT22;67903;52.108;9.358;2024-01-25T08:53:17;6.20;80.50
64987;DHT22;67903;52.108;9.358;2024-01-25T08:56:03;6.20;80.40
64987;DHT22;67903;52.108;9.358;2024-01-25T08:58:50;6.20;79.70
64987;DHT22;67903;52.108;9.358;2024-01-25T09:01:37;6.30;79.60
64987;DHT22;67903;52.108;9.358;2024-01-25T09:04:23;6.30;79.70
64987;DHT22;67903;52.108;9.358;2024-01-25T09:07:10;6.30;79.80
64987;DHT22;67903;52.108;9.358;2024-01-25T09:09:55;6.20;80.00
64987;DHT22;67903;52.108;9.358;2024-01-25T09:12:41;6.30;80.30
64987;DHT22;67903;52.108;9.358;2024-01-25T09:15:27;6.30;80.30
64987;DHT22;67903;52.108;9.358;2024-01-25T09:18:13;6.40;80.50
64987;DHT22;67903;52.108;9.358;2024-01-25T09:20:59;6.40;80.00
64987;DHT22;67903;52.108;9.358;2024-01-25T09:23:45;6.40;79.10
64987;DHT22;67903;52.108;9.358;2024-01-25T09:26:42;6.40;79.40
64987;DHT22;67903;52.108;9.358;2024-01-25T09:29:27;6.40;79.80
64987;DHT22;67903;52.108;9.358;2024-01-25T09:32:14;6.40;79.90
64987;DHT22;67903;52.108;9.358;2024-01-25T09:34:59;6.50;79.60
64987;DHT22;67903;52.108;9.358;2024-01-25T09:37:44;6.50;79.50
64987;DHT22;67903;52.108;9.358;2024-01-25T09:40:30;6.50;79.20
64987;DHT22;67903;52.108;9.358;2024-01-25T09:43:16;6.60;79.00
64987;DHT22;67903;52.108;9.358;2024-01-25T09:46:02;6.60;78.90
64987;DHT22;67903;52.108;9.358;2024-01-25T09:48:48;6.60;78.90
64987;DHT22;67903;52.108;9.358;2024-01-25T09:51:41;6.60;78.60
64987;DHT22;67903;52.108;9.358;2024-01-25T09:54:28;6.70;78.70
64987;DHT22;67903;52.108;9.358;2024-01-25T09:57:16;6.70;78.80
64987;DHT22;67903;52.108;9.358;2024-01-25T10:00:04;6.70;78.80
64987;DHT22;67903;52.108;9.358;2024-01-25T10:02:52;6.70;78.90
64987;DHT22;67903;52.108;9.358;2024-01-25T10:05:38;6.80;78.70
64987;DHT22;67903;52.108;9.358;2024-01-25T10:08:23;6.80;78.40
64987;DHT22;67903;52.108;9.358;2024-01-25T10:11:09;6.80;78.50
64987;DHT22;67903;52.108;9.358;2024-01-25T10:13:56;6.80;78.30
64987;DHT22;67903;52.108;9.358;2024-01-25T10:16:42;6.80;78.40
64987;DHT22;67903;52.108;9.358;2024-01-25T10:19:28;6.90;78.40
64987;DHT22;67903;52.108;9.358;2024-01-25T10:22:14;7.00;78.10
64987;DHT22;67903;52.108;9.358;2024-01-25T10:25:01;7.00;77.30
64987;DHT22;67903;52.108;9.358;2024-01-25T10:27:47;7.00;76.60
64987;DHT22;67903;52.108;9.358;2024-01-25T10:30:36;7.00;76.20
64987;DHT22;67903;52.108;9.358;2024-01-25T10:33:22;7.10;75.70
64987;DHT22;67903;52.108;9.358;2024-01-25T10:36:08;7.20;75.70
64987;DHT22;67903;52.108;9.358;2024-01-25T10:38:57;7.10;75.90
64987;DHT22;67903;52.108;9.358;2024-01-25T10:41:45;7.00;75.90
64987;DHT22;67903;52.108;9.358;2024-01-25T10:44:37;7.10;76.00
64987;DHT22;67903;52.108;9.358;2024-01-25T10:47:23;7.10;75.50
64987;DHT22;67903;52.108;9.358;2024-01-25T10:50:09;7.10;75.50
64987;DHT22;67903;52.108;9.358;2024-01-25T10:52:57;7.10;75.40
64987;DHT22;67903;52.108;9.358;2024-01-25T10:55:44;7.10;75.50
64987;DHT22;67903;52.108;9.358;2024-01-25T10:58:31;7.10;75.40
64987;DHT22;67903;52.108;9.358;2024-01-25T11:01:22;7.10;75.70
64987;DHT22;67903;52.108;9.358;2024-01-25T11:04:19;7.20;75.60
64987;DHT22;67903;52.108;9.358;2024-01-25T11:07:07;7.20;75.60
64987;DHT22;67903;52.108;9.358;2024-01-25T11:09:57;7.20;74.70
64987;DHT22;67903;52.108;9.358;2024-01-25T11:12:50;7.20;74.40
64987;DHT22;67903;52.108;9.358;2024-01-25T11:15:37;7.30;74.80
64987;DHT22;67903;52.108;9.358;2024-01-25T11:18:25;7.40;74.40
64987;DHT22;67903;52.108;9.358;2024-01-25T11:21:11;7.50;73.20
64987;DHT22;67903;52.108;9.358;2024-01-25T11:24:00;7.50;73.10
64987;DHT22;67903;52.108;9.358;2024-01-25T11:26:46;7.50;72.70
64987;DHT22;67903;52.108;9.358;2024-01-25T11:29:32;7.60;72.50
64987;DHT22;67903;52.108;9.358;2024-01-25T11:32:18;7.50;72.40
64987;DHT22;67903;52.108;9.358;2024-01-25T11:35:04;7.50;72.20
64987;DHT22;67903;52.108;9.358;2024-01-25T11:37:50;7.40;72.40
64987;DHT22;67903;52.108;9.358;2024-01-25T11:40:38;7.50;72.90
64987;DHT22;67903;52.108;9.358;2024-01-25T11:43:24;7.50;73.00
64987;DHT22;67903;52.108;9.358;2024-01-25T11:46:10;7.50;72.60
64987;DHT22;67903;52.108;9.358;2024-01-25T11:48:56;7.50;72.50
64987;DHT22;67903;52.108;9.358;2024-01-25T11:51:42;7.40;73.30
64987;DHT22;67903;52.108;9.358;2024-01-25T11:54:28;7.40;72.90
64987;DHT22;67903;52.108;9.358;2024-01-25T11:57:13;7.40;73.10
64987;DHT22;67903;52.108;9.358;2024-01-25T11:59:59;7.50;72.80
64987;DHT22;67903;52.108;9.358;2024-01-25T12:02:44;7.50;72.50
64987;DHT22;67903;52.108;9.358;2024-01-25T12:05:30;7.50;72.90
64987;DHT22;67903;52.108;9.358;2024-01-25T12:08:16;7.50;73.10
64987;DHT22;67903;52.108;9.358;2024-01-25T12:11:09;7.50;72.80
64987;DHT22;67903;52.108;9.358;2024-01-25T12:13:54;7.40;72.60
64987;DHT22;67903;52.108;9.358;2024-01-25T12:16:40;7.40;72.50
64987;DHT22;67903;52.108;9.358;2024-01-25T12:19:25;7.40;72.50
64987;DHT22;67903;52.108;9.358;2024-01-25T12:22:11;7.40;72.50
64987;DHT22;67903;52.108;9.358;2024-01-25T12:24:57;7.30;72.70
64987;DHT22;67903;52.108;9.358;2024-01-25T12:27:47;7.40;73.00
64987;DHT22;67903;52.108;9.358;2024-01-25T12:30:34;7.40;72.80
64987;DHT22;67903;52.108;9.358;2024-01-25T12:33:20;7.40;73.00
64987;DHT22;67903;52.108;9.358;2024-01-25T12:36:07;7.30;72.80
64987;DHT22;67903;52.108;9.358;2024-01-25T12:38:53;7.40;72.80
64987;DHT22;67903;52.108;9.358;2024-01-25T12:41:38;7.40;72.30
64987;DHT22;67903;52.108;9.358;2024-01-25T12:44:24;7.30;72.30
64987;DHT22;67903;52.108;9.358;2024-01-25T12:47:10;7.40;71.90
64987;DHT22;67903;52.108;9.358;2024-01-25T12:49:57;7.40;72.00
64987;DHT22;67903;52.108;9.358;2024-01-25T12:52:44;7.50;71.70
64987;DHT22;67903;52.108;9.358;2024-01-25T12:55:30;7.50;71.80
64987;DHT22;67903;52.108;9.358;2024-01-25T12:58:16;7.50;71.30
64987;DHT22;67903;52.108;9.358;2024-01-25T13:01:01;7.40;71.90
64987;DHT22;67903;52.108;9.358;2024-01-25T13:03:48;7.50;71.50
64987;DHT22;67903;52.108;9.358;2024-01-25T13:06:34;7.40;71.70
64987;DHT22;67903;52.108;9.358;2024-01-25T13:09:19;7.40;71.10
64987;DHT22;67903;52.108;9.358;2024-01-25T13:12:05;7.40;71.50
64987;DHT22;67903;52.108;9.358;2024-01-25T13:14:50;7.40;71.20
64987;DHT22;67903;52.108;9.358;2024-01-25T13:17:36;7.50;71.00
64987;DHT22;67903;52.108;9.358;2024-01-25T13:20:22;7.50;71.10
64987;DHT22;67903;52.108;9.358;2024-01-25T13:23:07;7.50;70.80
64987;DHT22;67903;52.108;9.358;2024-01-25T13:25:53;7.40;70.50
64987;DHT22;67903;52.108;9.358;2024-01-25T13:28:39;7.40;70.80
64987;DHT22;67903;52.108;9.358;2024-01-25T13:31:24;7.40;70.70
64987;DHT22;67903;52.108;9.358;2024-01-25T13:34:10;7.40;70.30
64987;DHT22;67903;52.108;9.358;2024-01-25T13:36:55;7.50;70.20
64987;DHT22;67903;52.108;9.358;2024-01-25T13:39:41;7.40;70.30
64987;DHT22;67903;52.108;9.358;2024-01-25T13:42:26;7.50;70.10
64987;DHT22;67903;52.108;9.358;2024-01-25T13:45:12;7.50;70.00
64987;DHT22;67903;52.108;9.358;2024-01-25T13:47:58;7.50;70.00
64987;DHT22;67903;52.108;9.358;2024-01-25T13:50:43;7.40;70.10
64987;DHT22;67903;52.108;9.358;2024-01-25T13:53:29;7.50;70.30
64987;DHT22;67903;52.108;9.358;2024-01-25T13:56:14;7.40;70.70
64987;DHT22;67903;52.108;9.358;2024-01-25T13:59:00;7.50;70.50
64987;DHT22;67903;52.108;9.358;2024-01-25T14:01:45;7.40;70.60
64987;DHT22;67903;52.108;9.358;2024-01-25T14:04:31;7.40;70.80
64987;DHT22;67903;52.108;9.358;2024-01-25T14:07:17;7.50;70.50
64987;DHT22;67903;52.108;9.358;2024-01-25T14:10:03;7.60;70.20
64987;DHT22;67903;52.108;9.358;2024-01-25T14:12:48;7.60;69.90
64987;DHT22;67903;52.108;9.358;2024-01-25T14:15:35;7.60;69.70
64987;DHT22;67903;52.108;9.358;2024-01-25T14:18:21;7.50;70.00
64987;DHT22;67903;52.108;9.358;2024-01-25T14:21:06;7.50;69.70
64987;DHT22;67903;52.108;9.358;2024-01-25T14:23:52;7.50;70.00
64987;DHT22;67903;52.108;9.358;2024-01-25T14:26:37;7.50;70.20
64987;DHT22;67903;52.108;9.358;2024-01-25T14:29:23;7.40;70.70
64987;DHT22;67903;52.108;9.358;2024-01-25T14:32:09;7.30;71.10
64987;DHT22;67903;52.108;9.358;2024-01-25T14:34:54;7.20;71.70
64987;DHT22;67903;52.108;9.358;2024-01-25T14:37:40;7.20;72.20
64987;DHT22;67903;52.108;9.358;2024-01-25T14:40:26;7.20;72.70
64987;DHT22;67903;52.108;9.358;2024-01-25T14:43:32;7.20;72.50
64987;DHT22;67903;52.108;9.358;2024-01-25T14:46:19;7.20;72.70
64987;DHT22;67903;52.108;9.358;2024-01-25T14:49:04;7.00;73.30
64987;DHT22;67903;52.108;9.358;2024-01-25T14:51:50;7.00;73.10
64987;DHT22;67903;52.108;9.358;2024-01-25T14:54:36;7.00;73.40
64987;DHT22;67903;52.108;9.358;2024-01-25T14:57:21;7.00;73.70
64987;DHT22;67903;52.108;9.358;2024-01-25T15:00:08;6.90;74.10
64987;DHT22;67903;52.108;9.358;2024-01-25T15:02:54;6.80;74.40
64987;DHT22;67903;52.108;9.358;2024-01-25T15:05:42;6.90;74.20
64987;DHT22;67903;52.108;9.358;2024-01-25T15:08:28;6.80;74.60
64987;DHT22;67903;52.108;9.358;2024-01-25T15:11:13;6.80;74.40
64987;DHT22;67903;52.108;9.358;2024-01-25T15:13:59;6.70;74.30
64987;DHT22;67903;52.108;9.358;2024-01-25T15:16:45;6.70;74.60
64987;DHT22;67903;52.108;9.358;2024-01-25T15:19:30;6.60;75.00
64987;DHT22;67903;52.108;9.358;2024-01-25T15:22:16;6.60;75.00
64987;DHT22;67903;52.108;9.358;2024-01-25T15:25:01;6.50;75.20
64987;DHT22;67903;52.108;9.358;2024-01-25T15:27:47;6.50;75.50
64987;DHT22;67903;52.108;9.358;2024-01-25T15:30:32;6.40;75.90
64987;DHT22;67903;52.108;9.358;2024-01-25T15:33:18;6.30;76.40
64987;DHT22;67903;52.108;9.358;2024-01-25T15:36:04;6.30;76.80
64987;DHT22;67903;52.108;9.358;2024-01-25T15:38:49;6.20;77.30
64987;DHT22;67903;52.108;9.358;2024-01-25T15:41:35;6.10;77.70
64987;DHT22;67903;52.108;9.358;2024-01-25T15:44:20;6.20;77.30
64987;DHT22;67903;52.108;9.358;2024-01-25T15:47:06;6.10;77.80
64987;DHT22;67903;52.108;9.358;2024-01-25T15:49:52;6.10;78.10
64987;DHT22;67903;52.108;9.358;2024-01-25T15:52:37;6.00;78.30
64987;DHT22;67903;52.108;9.358;2024-01-25T15:55:22;5.90;78.80
64987;DHT22;67903;52.108;9.358;2024-01-25T15:58:08;5.90;79.10
64987;DHT22;67903;52.108;9.358;2024-01-25T16:00:53;5.80;79.40
64987;DHT22;67903;52.108;9.358;2024-01-25T16:03:39;5.70;79.70
64987;DHT22;67903;52.108;9.358;2024-01-25T16:06:25;5.70;80.00
64987;DHT22;67903;52.108;9.358;2024-01-25T16:09:10;5.70;80.30
64987;DHT22;67903;52.108;9.358;2024-01-25T16:11:55;5.60;80.70
64987;DHT22;67903;52.108;9.358;2024-01-25T16:14:41;5.50;81.00
64987;DHT22;67903;52.108;9.358;2024-01-25T16:17:27;5.50;81.30
64987;DHT22;67903;52.108;9.358;2024-01-25T16:20:12;5.50;81.60
64987;DHT22;67903;52.108;9.358;2024-01-25T16:23:00;5.30;82.20
64987;DHT22;67903;52.108;9.358;2024-01-25T16:25:45;5.30;82.90
64987;DHT22;67903;52.108;9.358;2024-01-25T16:28:31;5.30;82.80
64987;DHT22;67903;52.108;9.358;2024-01-25T16:31:17;5.30;82.90
64987;DHT22;67903;52.108;9.358;2024-01-25T16:34:02;5.20;83.40
64987;DHT22;67903;52.108;9.358;2024-01-25T16:36:49;5.10;83.80
64987;DHT22;67903;52.108;9.358;2024-01-25T16:39:35;5.10;84.20
64987;DHT22;67903;52.108;9.358;2024-01-25T16:42:20;5.10;84.40
64987;DHT22;67903;52.108;9.358;2024-01-25T16:45:06;5.00;84.70
64987;DHT22;67903;52.108;9.358;2024-01-25T16:47:52;5.00;84.60
64987;DHT22;67903;52.108;9.358;2024-01-25T16:50:37;5.00;85.10
64987;DHT22;67903;52.108;9.358;2024-01-25T16:53:23;5.00;85.30
64987;DHT22;67903;52.108;9.358;2024-01-25T16:56:08;4.90;85.40
64987;DHT22;67903;52.108;9.358;2024-01-25T16:58:54;4.80;85.90
64987;DHT22;67903;52.108;9.358;2024-01-25T17:01:39;4.70;86.40
64987;DHT22;67903;52.108;9.358;2024-01-25T17:04:25;4.70;86.50
64987;DHT22;67903;52.108;9.358;2024-01-25T17:07:11;4.60;86.90
64987;DHT22;67903;52.108;9.358;2024-01-25T17:09:56;4.50;86.80
64987;DHT22;67903;52.108;9.358;2024-01-25T17:12:42;4.50;87.20
64987;DHT22;67903;52.108;9.358;2024-01-25T17:15:27;4.50;87.80
64987;DHT22;67903;52.108;9.358;2024-01-25T17:18:13;4.50;87.90
64987;DHT22;67903;52.108;9.358;2024-01-25T17:21:01;4.50;88.00
64987;DHT22;67903;52.108;9.358;2024-01-25T17:23:47;4.50;88.30
64987;DHT22;67903;52.108;9.358;2024-01-25T17:26:32;4.50;87.80
64987;DHT22;67903;52.108;9.358;2024-01-25T17:29:18;4.40;88.00
64987;DHT22;67903;52.108;9.358;2024-01-25T17:32:03;4.30;88.40
64987;DHT22;67903;52.108;9.358;2024-01-25T17:34:49;4.30;88.60
64987;DHT22;67903;52.108;9.358;2024-01-25T17:37:34;4.30;88.70
64987;DHT22;67903;52.108;9.358;2024-01-25T17:40:20;4.20;88.70
64987;DHT22;67903;52.108;9.358;2024-01-25T17:43:06;4.20;89.10
64987;DHT22;67903;52.108;9.358;2024-01-25T17:45:51;4.20;89.00